sensor_id;sensor_type;location;lat;lon;timestamp;pressure;altitude;pressure_sealevel;temperature;humidity
75208;BME280;63795;55.684;37.864;2023-01-15T00:00:00;100626.63;;;-2.30;77.59
75208;BME280;63795;55.684;37.864;2023-01-15T00:05:00;100626.41;;;-2.33;77.47
75208;BME280;63795;55.684;37.864;2023-01-15T00:10:03;100625.06;;;-2.36;77.52
75208;BME280;63795;55.684;37.864;2023-01-15T00:15:04;100617.47;;;-2.30;77.55
75208;BME280;63795;55.684;37.864;2023-01-15T00:20:04;100616.94;;;-2.32;77.45
75208;BME280;63795;55.684;37.864;2023-01-15T00:25:05;100629.09;;;-2.28;77.25
75208;BME280;63795;55.684;37.864;2023-01-15T00:30:25;100631.59;;;-2.27;77.51
75208;BME280;63795;55.684;37.864;2023-01-15T00:35:25;100627.78;;;-2.31;77.33
75208;BME280;63795;55.684;37.864;2023-01-15T00:40:26;100621.47;;;-2.36;77.28
75208;BME280;63795;55.684;37.864;2023-01-15T00:45:26;100611.72;;;-2.34;77.44
75208;BME280;63795;55.684;37.864;2023-01-15T00:50:26;100598.66;;;-2.33;77.30
75208;BME280;63795;55.684;37.864;2023-01-15T00:55:27;100591.06;;;-2.28;77.38
75208;BME280;63795;55.684;37.864;2023-01-15T01:00:27;100596.81;;;-2.24;77.61
75208;BME280;63795;55.684;37.864;2023-01-15T01:05:29;100590.69;;;-2.21;77.37
75208;BME280;63795;55.684;37.864;2023-01-15T01:10:30;100574.63;;;-2.24;76.97
75208;BME280;63795;55.684;37.864;2023-01-15T01:15:32;100587.38;;;-2.23;77.22
75208;BME280;63795;55.684;37.864;2023-01-15T01:20:33;100575.13;;;-2.22;77.02
75208;BME280;63795;55.684;37.864;2023-01-15T01:25:34;100574.09;;;-2.26;77.07
75208;BME280;63795;55.684;37.864;2023-01-15T01:30:37;100577.91;;;-2.22;77.21
75208;BME280;63795;55.684;37.864;2023-01-15T01:35:37;100580.78;;;-2.27;77.24
75208;BME280;63795;55.684;37.864;2023-01-15T01:40:38;100574.09;;;-2.26;77.19
75208;BME280;63795;55.684;37.864;2023-01-15T01:45:40;100575.44;;;-2.24;77.24
75208;BME280;63795;55.684;37.864;2023-01-15T01:50:41;100563.22;;;-2.23;76.89
75208;BME280;63795;55.684;37.864;2023-01-15T01:55:43;100567.44;;;-2.25;77.00
75208;BME280;63795;55.684;37.864;2023-01-15T02:00:46;100560.91;;;-2.34;76.99
75208;BME280;63795;55.684;37.864;2023-01-15T02:05:52;100566.97;;;-2.32;77.19
75208;BME280;63795;55.684;37.864;2023-01-15T02:10:55;100566.47;;;-2.34;77.14
75208;BME280;63795;55.684;37.864;2023-01-15T02:21:22;100582.84;;;-2.33;77.32
75208;BME280;63795;55.684;37.864;2023-01-15T02:26:59;100563.69;;;-2.34;77.45
75208;BME280;63795;55.684;37.864;2023-01-15T02:32:01;100548.69;;;-2.33;77.53
75208;BME280;63795;55.684;37.864;2023-01-15T02:37:07;100554.75;;;-2.31;77.34
75208;BME280;63795;55.684;37.864;2023-01-15T02:42:10;100544.25;;;-2.34;77.31
75208;BME280;63795;55.684;37.864;2023-01-15T02:47:11;100554.13;;;-2.28;77.31
75208;BME280;63795;55.684;37.864;2023-01-15T02:52:16;100558.78;;;-2.24;77.13
75208;BME280;63795;55.684;37.864;2023-01-15T02:57:21;100560.72;;;-2.24;77.42
75208;BME280;63795;55.684;37.864;2023-01-15T03:02:27;100564.34;;;-2.24;77.23
75208;BME280;63795;55.684;37.864;2023-01-15T03:07:35;100559.09;;;-2.25;77.23
75208;BME280;63795;55.684;37.864;2023-01-15T03:12:46;100561.88;;;-2.25;77.34
75208;BME280;63795;55.684;37.864;2023-01-15T03:18:05;100554.06;;;-2.23;77.24
75208;BME280;63795;55.684;37.864;2023-01-15T03:23:10;100564.97;;;-2.27;77.44
75208;BME280;63795;55.684;37.864;2023-01-15T03:28:14;100566.59;;;-2.26;77.42
75208;BME280;63795;55.684;37.864;2023-01-15T03:33:17;100568.47;;;-2.21;77.22
75208;BME280;63795;55.684;37.864;2023-01-15T03:38:23;100577.31;;;-2.19;77.44
75208;BME280;63795;55.684;37.864;2023-01-15T03:43:34;100561.88;;;-2.25;77.20
75208;BME280;63795;55.684;37.864;2023-01-15T03:53:54;100577.91;;;-2.22;77.43
75208;BME280;63795;55.684;37.864;2023-01-15T03:59:00;100569.06;;;-2.24;77.41
75208;BME280;63795;55.684;37.864;2023-01-15T04:04:03;100582.88;;;-2.19;77.25
75208;BME280;63795;55.684;37.864;2023-01-15T04:09:07;100581.50;;;-2.22;77.52
75208;BME280;63795;55.684;37.864;2023-01-15T04:14:11;100571.31;;;-2.26;77.40
75208;BME280;63795;55.684;37.864;2023-01-15T04:19:12;100561.03;;;-2.26;77.29
75208;BME280;63795;55.684;37.864;2023-01-15T04:24:13;100555.69;;;-2.22;77.56
75208;BME280;63795;55.684;37.864;2023-01-15T04:29:13;100564.66;;;-2.25;77.39
75208;BME280;63795;55.684;37.864;2023-01-15T04:34:14;100581.50;;;-2.22;77.44
75208;BME280;63795;55.684;37.864;2023-01-15T04:39:14;100574.03;;;-2.21;77.54
75208;BME280;63795;55.684;37.864;2023-01-15T04:44:15;100577.91;;;-2.22;77.35
75208;BME280;63795;55.684;37.864;2023-01-15T04:49:16;100579.19;;;-2.15;77.15
75208;BME280;63795;55.684;37.864;2023-01-15T04:54:17;100575.06;;;-2.17;77.03
75208;BME280;63795;55.684;37.864;2023-01-15T04:59:20;100569.28;;;-2.21;77.43
75208;BME280;63795;55.684;37.864;2023-01-15T05:04:21;100577.53;;;-2.16;77.25
75208;BME280;63795;55.684;37.864;2023-01-15T05:09:21;100566.72;;;-2.17;77.21
75208;BME280;63795;55.684;37.864;2023-01-15T05:14:22;100566.72;;;-2.17;77.15
75208;BME280;63795;55.684;37.864;2023-01-15T05:19:22;100569.81;;;-2.19;77.18
75208;BME280;63795;55.684;37.864;2023-01-15T05:24:23;100564.53;;;-2.20;77.25
75208;BME280;63795;55.684;37.864;2023-01-15T05:29:23;100561.19;;;-2.17;77.52
75208;BME280;63795;55.684;37.864;2023-01-15T05:34:24;100559.44;;;-2.13;77.38
75208;BME280;63795;55.684;37.864;2023-01-15T05:39:24;100568.06;;;-2.15;77.46
75208;BME280;63795;55.684;37.864;2023-01-15T05:44:27;100557.88;;;-2.19;77.56
75208;BME280;63795;55.684;37.864;2023-01-15T05:49:29;100560.66;;;-2.19;77.60
75208;BME280;63795;55.684;37.864;2023-01-15T05:54:32;100565.16;;;-2.23;77.57
75208;BME280;63795;55.684;37.864;2023-01-15T05:59:33;100566.38;;;-2.29;77.89
75208;BME280;63795;55.684;37.864;2023-01-15T06:04:33;100559.41;;;-2.27;77.99
75208;BME280;63795;55.684;37.864;2023-01-15T06:09:34;100554.06;;;-2.23;77.93
75208;BME280;63795;55.684;37.864;2023-01-15T06:14:34;100561.03;;;-2.26;77.91
75208;BME280;63795;55.684;37.864;2023-01-15T06:19:35;100575.13;;;-2.22;78.10
75208;BME280;63795;55.684;37.864;2023-01-15T06:24:35;100551.50;;;-2.20;78.03
75208;BME280;63795;55.684;37.864;2023-01-15T06:29:36;100557.75;;;-2.28;78.04
75208;BME280;63795;55.684;37.864;2023-01-15T06:34:36;100549.09;;;-2.26;78.13
75208;BME280;63795;55.684;37.864;2023-01-15T06:39:37;100547.38;;;-2.22;77.82
75208;BME280;63795;55.684;37.864;2023-01-15T06:44:37;100549.88;;;-2.21;77.56
75208;BME280;63795;55.684;37.864;2023-01-15T06:49:57;100555.94;;;-2.19;77.54
75208;BME280;63795;55.684;37.864;2023-01-15T06:54:58;100572.69;;;-2.10;77.44
75208;BME280;63795;55.684;37.864;2023-01-15T06:59:58;100578.25;;;-2.10;77.06
75208;BME280;63795;55.684;37.864;2023-01-15T07:04:59;100587.63;;;-2.06;76.88
75208;BME280;63795;55.684;37.864;2023-01-15T07:09:59;100579.69;;;-2.13;76.84
75208;BME280;63795;55.684;37.864;2023-01-15T07:15:00;100590.50;;;-2.11;76.99
75208;BME280;63795;55.684;37.864;2023-01-15T07:20:00;100577.97;;;-2.09;76.99
75208;BME280;63795;55.684;37.864;2023-01-15T07:25:01;100584.44;;;-2.13;76.76
75208;BME280;63795;55.684;37.864;2023-01-15T07:30:02;100582.69;;;-2.09;76.89
75208;BME280;63795;55.684;37.864;2023-01-15T07:35:03;100582.06;;;-2.06;76.79
75208;BME280;63795;55.684;37.864;2023-01-15T07:40:04;100583.81;;;-2.10;77.11
75208;BME280;63795;55.684;37.864;2023-01-15T07:45:05;100570.44;;;-2.08;76.87
75208;BME280;63795;55.684;37.864;2023-01-15T07:50:24;100571.56;;;-2.09;76.46
75208;BME280;63795;55.684;37.864;2023-01-15T07:55:24;100570.94;;;-2.06;76.45
75208;BME280;63795;55.684;37.864;2023-01-15T08:00:25;100571.97;;;-2.02;76.42
75208;BME280;63795;55.684;37.864;2023-01-15T08:05:25;100576.44;;;-2.01;76.61
75208;BME280;63795;55.684;37.864;2023-01-15T08:10:26;100575.78;;;-1.98;76.29
75208;BME280;63795;55.684;37.864;2023-01-15T08:15:31;100568.28;;;-1.98;76.16
75208;BME280;63795;55.684;37.864;2023-01-15T08:20:33;100559.44;;;-2.00;76.23
75208;BME280;63795;55.684;37.864;2023-01-15T08:25:35;100558.41;;;-1.90;76.28
75208;BME280;63795;55.684;37.864;2023-01-15T08:30:36;100562.34;;;-1.91;76.09
75208;BME280;63795;55.684;37.864;2023-01-15T08:35:36;100557.91;;;-1.92;76.00
75208;BME280;63795;55.684;37.864;2023-01-15T08:40:37;100555.03;;;-1.87;75.93
75208;BME280;63795;55.684;37.864;2023-01-15T08:45:58;100548.53;;;-1.96;75.86
75208;BME280;63795;55.684;37.864;2023-01-15T08:51:06;100547.94;;;-1.93;75.70
75208;BME280;63795;55.684;37.864;2023-01-15T08:56:14;100556.34;;;-1.98;75.84
75208;BME280;63795;55.684;37.864;2023-01-15T09:01:15;100555.56;;;-1.99;75.65
75208;BME280;63795;55.684;37.864;2023-01-15T09:06:16;100554.59;;;-1.94;75.97
75208;BME280;63795;55.684;37.864;2023-01-15T09:11:16;100552.88;;;-1.90;75.81
75208;BME280;63795;55.684;37.864;2023-01-15T09:16:17;100548.78;;;-1.93;75.28
75208;BME280;63795;55.684;37.864;2023-01-15T09:21:19;100556.16;;;-1.88;75.40
75208;BME280;63795;55.684;37.864;2023-01-15T09:26:37;100545.56;;;-1.86;75.23
75208;BME280;63795;55.684;37.864;2023-01-15T09:31:38;100540.53;;;-1.84;75.27
75208;BME280;63795;55.684;37.864;2023-01-15T09:36:39;100537.47;;;-1.83;75.14
75208;BME280;63795;55.684;37.864;2023-01-15T09:47:11;100537.25;;;-1.73;75.38
75208;BME280;63795;55.684;37.864;2023-01-15T09:57:33;100517.59;;;-1.62;74.90
75208;BME280;63795;55.684;37.864;2023-01-15T10:02:46;100522.84;;;-1.61;74.63
75208;BME280;63795;55.684;37.864;2023-01-15T10:13:17;100502.97;;;-1.68;74.32
75208;BME280;63795;55.684;37.864;2023-01-15T10:18:21;100523.84;;;-1.57;73.99
75208;BME280;63795;55.684;37.864;2023-01-15T10:34:20;100526.00;;;-1.54;74.02
75208;BME280;63795;55.684;37.864;2023-01-15T10:44:59;100512.22;;;-1.59;73.65
75208;BME280;63795;55.684;37.864;2023-01-15T10:50:22;100501.31;;;-1.55;73.73
75208;BME280;63795;55.684;37.864;2023-01-15T10:55:39;100505.44;;;-1.53;73.58
75208;BME280;63795;55.684;37.864;2023-01-15T11:00:47;100515.31;;;-1.47;73.54
75208;BME280;63795;55.684;37.864;2023-01-15T11:05:49;100509.94;;;-1.43;73.91
75208;BME280;63795;55.684;37.864;2023-01-15T11:10:50;100486.25;;;-1.41;73.46
75208;BME280;63795;55.684;37.864;2023-01-15T11:15:50;100485.94;;;-1.39;73.07
75208;BME280;63795;55.684;37.864;2023-01-15T11:21:15;100497.56;;;-1.37;73.62
75208;BME280;63795;55.684;37.864;2023-01-15T11:26:23;100493.66;;;-1.36;73.62
75208;BME280;63795;55.684;37.864;2023-01-15T11:31:38;100468.84;;;-1.33;73.48
75208;BME280;63795;55.684;37.864;2023-01-15T11:36:39;100466.38;;;-1.34;73.53
75208;BME280;63795;55.684;37.864;2023-01-15T11:41:39;100463.78;;;-1.31;73.37
75208;BME280;63795;55.684;37.864;2023-01-15T11:46:59;100451.69;;;-1.26;72.75
75208;BME280;63795;55.684;37.864;2023-01-15T11:52:20;100446.59;;;-1.33;72.78
75208;BME280;63795;55.684;37.864;2023-01-15T11:57:27;100453.78;;;-1.32;72.83
75208;BME280;63795;55.684;37.864;2023-01-15T12:02:36;100438.13;;;-1.28;73.01
75208;BME280;63795;55.684;37.864;2023-01-15T12:08:01;100456.97;;;-1.25;73.13
75208;BME280;63795;55.684;37.864;2023-01-15T12:13:20;100449.22;;;-1.28;72.47
75208;BME280;63795;55.684;37.864;2023-01-15T12:29:33;100458.25;;;-1.44;72.93
75208;BME280;63795;55.684;37.864;2023-01-15T12:39:56;100445.09;;;-1.52;72.67
75208;BME280;63795;55.684;37.864;2023-01-15T12:45:02;100456.50;;;-1.54;72.46
75208;BME280;63795;55.684;37.864;2023-01-15T12:50:33;100457.84;;;-1.51;72.32
75208;BME280;63795;55.684;37.864;2023-01-15T12:55:41;100454.16;;;-1.47;72.54
75208;BME280;63795;55.684;37.864;2023-01-15T13:00:43;100463.09;;;-1.50;72.40
75208;BME280;63795;55.684;37.864;2023-01-15T13:10:53;100476.38;;;-1.47;72.23
75208;BME280;63795;55.684;37.864;2023-01-15T13:16:21;100485.31;;;-1.50;71.57
75208;BME280;63795;55.684;37.864;2023-01-15T13:21:28;100483.78;;;-1.56;71.64
75208;BME280;63795;55.684;37.864;2023-01-15T13:32:05;100494.00;;;-1.51;71.70
75208;BME280;63795;55.684;37.864;2023-01-15T13:42:33;100487.31;;;-1.50;72.00
75208;BME280;63795;55.684;37.864;2023-01-15T13:47:37;100501.94;;;-1.58;71.77
75208;BME280;63795;55.684;37.864;2023-01-15T13:52:38;100491.75;;;-1.63;71.77
75208;BME280;63795;55.684;37.864;2023-01-15T13:57:41;100499.78;;;-1.61;71.96
75208;BME280;63795;55.684;37.864;2023-01-15T14:02:51;100493.19;;;-1.65;71.69
75208;BME280;63795;55.684;37.864;2023-01-15T14:07:53;100502.25;;;-1.74;71.85
75208;BME280;63795;55.684;37.864;2023-01-15T14:18:17;100504.84;;;-1.77;71.72
75208;BME280;63795;55.684;37.864;2023-01-15T14:24:02;100505.75;;;-1.82;71.44
75208;BME280;63795;55.684;37.864;2023-01-15T14:34:53;100508.41;;;-1.90;71.64
75208;BME280;63795;55.684;37.864;2023-01-15T14:39:56;100500.31;;;-1.87;71.57
75208;BME280;63795;55.684;37.864;2023-01-15T14:45:01;100486.41;;;-2.00;71.73
75208;BME280;63795;55.684;37.864;2023-01-15T14:50:22;100494.00;;;-1.92;71.53
75208;BME280;63795;55.684;37.864;2023-01-15T14:55:24;100504.00;;;-1.91;71.62
75208;BME280;63795;55.684;37.864;2023-01-15T15:00:32;100484.66;;;-1.96;71.51
75208;BME280;63795;55.684;37.864;2023-01-15T15:05:33;100476.97;;;-1.99;71.48
75208;BME280;63795;55.684;37.864;2023-01-15T15:10:40;100479.72;;;-1.99;71.83
75208;BME280;63795;55.684;37.864;2023-01-15T15:16:12;100474.91;;;-2.07;72.16
75208;BME280;63795;55.684;37.864;2023-01-15T15:21:25;100478.91;;;-2.13;72.52
75208;BME280;63795;55.684;37.864;2023-01-15T15:26:31;100473.16;;;-2.17;72.71
75208;BME280;63795;55.684;37.864;2023-01-15T15:31:37;100467.47;;;-2.25;72.72
75208;BME280;63795;55.684;37.864;2023-01-15T15:36:38;100462.13;;;-2.35;73.32
75208;BME280;63795;55.684;37.864;2023-01-15T15:41:40;100447.72;;;-2.37;73.22
75208;BME280;63795;55.684;37.864;2023-01-15T15:47:17;100445.22;;;-2.52;73.83
75208;BME280;63795;55.684;37.864;2023-01-15T15:52:43;100451.81;;;-2.48;73.77
75208;BME280;63795;55.684;37.864;2023-01-15T15:57:50;100448.84;;;-2.52;73.67
75208;BME280;63795;55.684;37.864;2023-01-15T16:02:51;100433.00;;;-2.51;73.45
75208;BME280;63795;55.684;37.864;2023-01-15T16:07:53;100427.16;;;-2.50;73.69
75208;BME280;63795;55.684;37.864;2023-01-15T16:12:57;100424.78;;;-2.57;73.43
75208;BME280;63795;55.684;37.864;2023-01-15T16:18:00;100428.19;;;-2.60;73.84
75208;BME280;63795;55.684;37.864;2023-01-15T16:23:04;100418.09;;;-2.55;73.68
75208;BME280;63795;55.684;37.864;2023-01-15T16:28:05;100411.63;;;-2.65;73.39
75208;BME280;63795;55.684;37.864;2023-01-15T16:33:05;100399.69;;;-2.79;73.81
75208;BME280;63795;55.684;37.864;2023-01-15T16:38:17;100384.34;;;-2.90;73.58
75208;BME280;63795;55.684;37.864;2023-01-15T16:43:23;100384.63;;;-3.05;73.50
75208;BME280;63795;55.684;37.864;2023-01-15T16:58:37;100354.06;;;-3.32;74.25
75208;BME280;63795;55.684;37.864;2023-01-15T17:03:39;100350.44;;;-3.32;73.94
75208;BME280;63795;55.684;37.864;2023-01-15T17:08:45;100334.66;;;-3.32;73.90
75208;BME280;63795;55.684;37.864;2023-01-15T17:13:47;100333.31;;;-3.34;73.90
75208;BME280;63795;55.684;37.864;2023-01-15T17:18:50;100337.22;;;-3.35;73.93
75208;BME280;63795;55.684;37.864;2023-01-15T17:23:51;100335.56;;;-3.36;73.86
75208;BME280;63795;55.684;37.864;2023-01-15T17:28:52;100341.09;;;-3.36;73.80
75208;BME280;63795;55.684;37.864;2023-01-15T17:33:53;100343.50;;;-3.30;73.73
75208;BME280;63795;55.684;37.864;2023-01-15T17:38:55;100341.75;;;-3.26;73.62
75208;BME280;63795;55.684;37.864;2023-01-15T17:43:57;100352.47;;;-3.19;73.57
75208;BME280;63795;55.684;37.864;2023-01-15T17:48:58;100356.13;;;-3.24;73.45
75208;BME280;63795;55.684;37.864;2023-01-15T17:53:59;100369.06;;;-3.33;73.83
75208;BME280;63795;55.684;37.864;2023-01-15T17:58:59;100375.63;;;-3.29;73.87
75208;BME280;63795;55.684;37.864;2023-01-15T18:04:31;100373.56;;;-3.37;73.78
75208;BME280;63795;55.684;37.864;2023-01-15T18:09:53;100376.44;;;-3.28;73.63
75208;BME280;63795;55.684;37.864;2023-01-15T18:14:55;100379.63;;;-3.35;73.80
75208;BME280;63795;55.684;37.864;2023-01-15T18:19:56;100390.19;;;-3.37;73.87
75208;BME280;63795;55.684;37.864;2023-01-15T18:24:57;100382.97;;;-3.38;74.01
75208;BME280;63795;55.684;37.864;2023-01-15T18:29:58;100371.69;;;-3.41;74.18
75208;BME280;63795;55.684;37.864;2023-01-15T18:34:59;100364.72;;;-3.39;74.20
75208;BME280;63795;55.684;37.864;2023-01-15T18:39:59;100362.53;;;-3.42;74.45
75208;BME280;63795;55.684;37.864;2023-01-15T18:45:00;100360.59;;;-3.41;74.13
75208;BME280;63795;55.684;37.864;2023-01-15T18:50:18;100356.09;;;-3.37;73.97
75208;BME280;63795;55.684;37.864;2023-01-15T18:55:20;100341.72;;;-3.39;74.03
75208;BME280;63795;55.684;37.864;2023-01-15T19:00:27;100346.53;;;-3.45;74.23
75208;BME280;63795;55.684;37.864;2023-01-15T19:05:27;100350.94;;;-3.44;74.36
75208;BME280;63795;55.684;37.864;2023-01-15T19:10:28;100351.66;;;-3.38;74.20
75208;BME280;63795;55.684;37.864;2023-01-15T19:15:28;100343.06;;;-3.37;73.78
75208;BME280;63795;55.684;37.864;2023-01-15T19:20:48;100339.47;;;-3.37;73.57
75208;BME280;63795;55.684;37.864;2023-01-15T19:25:49;100329.28;;;-3.42;73.86
75208;BME280;63795;55.684;37.864;2023-01-15T19:30:50;100327.72;;;-3.48;73.89
75208;BME280;63795;55.684;37.864;2023-01-15T19:36:11;100324.22;;;-3.54;73.82
75208;BME280;63795;55.684;37.864;2023-01-15T19:41:11;100324.09;;;-3.62;74.19
75208;BME280;63795;55.684;37.864;2023-01-15T19:46:32;100320.22;;;-3.61;74.17
75208;BME280;63795;55.684;37.864;2023-01-15T19:51:51;100306.88;;;-3.59;74.35
75208;BME280;63795;55.684;37.864;2023-01-15T19:57:10;100308.59;;;-3.63;74.51
75208;BME280;63795;55.684;37.864;2023-01-15T20:02:10;100293.19;;;-3.69;74.27
75208;BME280;63795;55.684;37.864;2023-01-15T20:07:11;100278.47;;;-3.83;74.54
75208;BME280;63795;55.684;37.864;2023-01-15T20:12:12;100291.69;;;-3.80;74.69
75208;BME280;63795;55.684;37.864;2023-01-15T20:17:31;100290.06;;;-3.81;74.81
75208;BME280;63795;55.684;37.864;2023-01-15T20:22:32;100292.91;;;-3.86;74.89
75208;BME280;63795;55.684;37.864;2023-01-15T20:27:36;100281.94;;;-3.91;74.88
75208;BME280;63795;55.684;37.864;2023-01-15T20:32:41;100290.13;;;-3.86;74.64
75208;BME280;63795;55.684;37.864;2023-01-15T20:37:42;100292.31;;;-3.83;74.83
75208;BME280;63795;55.684;37.864;2023-01-15T20:42:42;100281.25;;;-3.83;75.01
75208;BME280;63795;55.684;37.864;2023-01-15T20:48:02;100273.88;;;-3.74;74.74
75208;BME280;63795;55.684;37.864;2023-01-15T20:53:11;100270.22;;;-3.70;74.32
75208;BME280;63795;55.684;37.864;2023-01-15T20:58:11;100260.34;;;-3.76;74.29
75208;BME280;63795;55.684;37.864;2023-01-15T21:03:12;100263.00;;;-3.71;74.47
75208;BME280;63795;55.684;37.864;2023-01-15T21:08:12;100265.41;;;-3.64;74.26
75208;BME280;63795;55.684;37.864;2023-01-15T21:13:13;100248.25;;;-3.66;74.13
75208;BME280;63795;55.684;37.864;2023-01-15T21:18:13;100267.13;;;-3.68;74.34
75208;BME280;63795;55.684;37.864;2023-01-15T21:23:14;100260.47;;;-3.67;74.34
75208;BME280;63795;55.684;37.864;2023-01-15T21:28:14;100252.69;;;-3.65;74.23
75208;BME280;63795;55.684;37.864;2023-01-15T21:33:15;100250.31;;;-3.72;74.36
75208;BME280;63795;55.684;37.864;2023-01-15T21:38:15;100246.19;;;-3.74;74.48
75208;BME280;63795;55.684;37.864;2023-01-15T21:43:16;100251.13;;;-3.71;74.45
75208;BME280;63795;55.684;37.864;2023-01-15T21:48:35;100246.53;;;-3.62;74.30
75208;BME280;63795;55.684;37.864;2023-01-15T21:53:35;100244.38;;;-3.65;74.37
75208;BME280;63795;55.684;37.864;2023-01-15T21:58:39;100240.16;;;-3.63;74.25
75208;BME280;63795;55.684;37.864;2023-01-15T22:03:39;100228.78;;;-3.61;74.21
75208;BME280;63795;55.684;37.864;2023-01-15T22:08:40;100231.47;;;-3.56;74.30
75208;BME280;63795;55.684;37.864;2023-01-15T22:13:40;100239.06;;;-3.62;74.42
75208;BME280;63795;55.684;37.864;2023-01-15T22:18:41;100230.41;;;-3.74;74.40
75208;BME280;63795;55.684;37.864;2023-01-15T22:23:41;100234.22;;;-3.70;74.71
75208;BME280;63795;55.684;37.864;2023-01-15T22:28:42;100234.59;;;-3.76;74.89
75208;BME280;63795;55.684;37.864;2023-01-15T22:33:44;100224.13;;;-3.79;74.96
75208;BME280;63795;55.684;37.864;2023-01-15T22:38:44;100225.16;;;-3.75;75.15
75208;BME280;63795;55.684;37.864;2023-01-15T22:43:46;100225.69;;;-3.73;75.04
75208;BME280;63795;55.684;37.864;2023-01-15T22:48:46;100228.53;;;-3.78;75.43
75208;BME280;63795;55.684;37.864;2023-01-15T22:53:47;100225.69;;;-3.73;75.46
75208;BME280;63795;55.684;37.864;2023-01-15T22:58:47;100216.25;;;-3.72;75.23
75208;BME280;63795;55.684;37.864;2023-01-15T23:03:48;100213.28;;;-3.76;75.38
75208;BME280;63795;55.684;37.864;2023-01-15T23:08:54;100208.25;;;-3.74;75.38
75208;BME280;63795;55.684;37.864;2023-01-15T23:13:56;100204.75;;;-3.79;75.50
75208;BME280;63795;55.684;37.864;2023-01-15T23:18:56;100189.38;;;-3.72;75.44
75208;BME280;63795;55.684;37.864;2023-01-15T23:23:59;100199.41;;;-3.76;75.41
75208;BME280;63795;55.684;37.864;2023-01-15T23:28:59;100180.13;;;-3.81;75.27
75208;BME280;63795;55.684;37.864;2023-01-15T23:34:00;100186.47;;;-3.80;75.66
75208;BME280;63795;55.684;37.864;2023-01-15T23:39:00;100181.78;;;-3.80;75.83
75208;BME280;63795;55.684;37.864;2023-01-15T23:44:01;100161.16;;;-3.87;75.67
75208;BME280;63795;55.684;37.864;2023-01-15T23:49:20;100165.66;;;-3.78;75.72
75208;BME280;63795;55.684;37.864;2023-01-15T23:54:20;100165.66;;;-3.78;75.88
75208;BME280;63795;55.684;37.864;2023-01-15T23:59:21;100150.09;;;-3.74;75.69
